sensor_id;sensor_type;location;lat;lon;timestamp;pressure;altitude;pressure_sealevel;temperature;humidity
59329;BME280;45100;46.926;7.452;2023-04-22T12:24:29;94782.54;;;16.30;56.67
59329;BME280;45100;46.926;7.452;2023-04-22T12:26:48;94784.12;;;16.23;57.71
59329;BME280;45100;46.926;7.452;2023-04-22T12:29:25;94789.36;;;16.17;57.59
59329;BME280;45100;46.926;7.452;2023-04-22T12:31:49;94793.62;;;16.12;57.95
59329;BME280;45100;46.926;7.452;2023-04-22T12:34:20;94793.50;;;16.10;58.44
59329;BME280;45100;46.926;7.452;2023-04-22T12:36:51;94798.94;;;16.12;58.91
59329;BME280;45100;46.926;7.452;2023-04-22T12:39:21;94794.74;;;16.13;59.12
59329;BME280;45100;46.926;7.452;2023-04-22T12:41:52;94801.00;;;16.14;59.83
59329;BME280;45100;46.926;7.452;2023-04-22T12:44:23;94801.10;;;16.18;60.33
59329;BME280;45100;46.926;7.452;2023-04-22T12:46:54;94798.81;;;16.22;60.74
59329;BME280;45100;46.926;7.452;2023-04-22T12:49:25;94800.09;;;16.26;61.36
59329;BME280;45100;46.926;7.452;2023-04-22T12:51:54;94803.83;;;16.31;61.30
59329;BME280;45100;46.926;7.452;2023-04-22T12:54:25;94807.09;;;16.32;61.25
59329;BME280;45100;46.926;7.452;2023-04-22T12:56:58;94799.22;;;16.30;62.31
59329;BME280;45100;46.926;7.452;2023-04-22T12:59:27;94805.41;;;16.31;61.79
59329;BME280;45100;46.926;7.452;2023-04-22T13:01:57;94805.12;;;16.35;62.01
59329;BME280;45100;46.926;7.452;2023-04-22T13:04:28;94804.58;;;16.38;62.40
59329;BME280;45100;46.926;7.452;2023-04-22T13:06:59;94797.89;;;16.39;61.27
59329;BME280;45100;46.926;7.452;2023-04-22T13:10:10;94813.36;;;16.40;61.58
59329;BME280;45100;46.926;7.452;2023-04-22T13:12:41;94808.94;;;16.37;63.65
59329;BME280;45100;46.926;7.452;2023-04-22T13:15:11;94807.38;;;16.31;65.13
59329;BME280;45100;46.926;7.452;2023-04-22T13:17:42;94805.55;;;16.21;66.01
59329;BME280;45100;46.926;7.452;2023-04-22T13:20:14;94805.28;;;16.10;65.80
59329;BME280;45100;46.926;7.452;2023-04-22T13:23:17;94806.98;;;15.95;67.87
59329;BME280;45100;46.926;7.452;2023-04-22T13:25:45;94807.92;;;15.79;68.58
59329;BME280;45100;46.926;7.452;2023-04-22T13:28:16;94802.28;;;15.64;68.95
59329;BME280;45100;46.926;7.452;2023-04-22T13:30:46;94790.93;;;15.48;68.05
59329;BME280;45100;46.926;7.452;2023-04-22T13:33:17;94787.12;;;15.37;69.70
59329;BME280;45100;46.926;7.452;2023-04-22T13:35:48;94784.80;;;15.31;70.05
59329;BME280;45100;46.926;7.452;2023-04-22T13:38:19;94781.75;;;15.28;70.79
59329;BME280;45100;46.926;7.452;2023-04-22T13:40:49;94778.81;;;15.29;71.59
59329;BME280;45100;46.926;7.452;2023-04-22T13:43:20;94785.17;;;15.30;70.14
59329;BME280;45100;46.926;7.452;2023-04-22T13:45:51;94778.06;;;15.31;71.65
59329;BME280;45100;46.926;7.452;2023-04-22T13:48:21;94780.56;;;15.31;72.70
59329;BME280;45100;46.926;7.452;2023-04-22T13:50:52;94778.65;;;15.32;73.22
59329;BME280;45100;46.926;7.452;2023-04-22T13:53:23;94769.60;;;15.31;72.26
59329;BME280;45100;46.926;7.452;2023-04-22T13:55:54;94773.97;;;15.28;73.96
59329;BME280;45100;46.926;7.452;2023-04-22T13:58:25;94768.89;;;15.25;74.32
59329;BME280;45100;46.926;7.452;2023-04-22T14:00:56;94756.58;;;15.21;76.00
59329;BME280;45100;46.926;7.452;2023-04-22T14:03:30;94746.97;;;15.18;75.90
59329;BME280;45100;46.926;7.452;2023-04-22T14:05:57;94747.98;;;15.17;76.32
59329;BME280;45100;46.926;7.452;2023-04-22T14:08:28;94748.38;;;15.16;76.68
59329;BME280;45100;46.926;7.452;2023-04-22T14:10:59;94743.80;;;15.16;77.01
59329;BME280;45100;46.926;7.452;2023-04-22T14:13:30;94735.03;;;15.18;76.47
59329;BME280;45100;46.926;7.452;2023-04-22T14:16:00;94742.90;;;15.21;76.21
59329;BME280;45100;46.926;7.452;2023-04-22T14:18:36;94745.72;;;15.21;75.80
59329;BME280;45100;46.926;7.452;2023-04-22T14:21:02;94752.28;;;15.24;75.25
59329;BME280;45100;46.926;7.452;2023-04-22T14:23:43;94753.96;;;15.26;74.97
59329;BME280;45100;46.926;7.452;2023-04-22T14:26:03;94750.55;;;15.26;74.74
59329;BME280;45100;46.926;7.452;2023-04-22T14:28:36;94750.17;;;15.25;75.15
59329;BME280;45100;46.926;7.452;2023-04-22T14:31:03;94762.47;;;15.22;76.15
59329;BME280;45100;46.926;7.452;2023-04-22T14:33:33;94768.89;;;15.21;75.96
59329;BME280;45100;46.926;7.452;2023-04-22T14:36:04;94753.20;;;15.23;76.13
59329;BME280;45100;46.926;7.452;2023-04-22T14:38:35;94755.97;;;15.24;76.09
59329;BME280;45100;46.926;7.452;2023-04-22T14:41:05;94763.02;;;15.17;76.17
59329;BME280;45100;46.926;7.452;2023-04-22T14:43:36;94765.45;;;15.09;76.85
59329;BME280;45100;46.926;7.452;2023-04-22T14:46:07;94762.34;;;15.00;77.23
59329;BME280;45100;46.926;7.452;2023-04-22T14:48:38;94769.81;;;14.92;78.28
59329;BME280;45100;46.926;7.452;2023-04-22T14:51:08;94769.69;;;14.85;79.68
59329;BME280;45100;46.926;7.452;2023-04-22T14:53:40;94773.05;;;14.84;79.08
59329;BME280;45100;46.926;7.452;2023-04-22T14:56:09;94772.05;;;14.83;78.59
59329;BME280;45100;46.926;7.452;2023-04-22T14:58:40;94778.78;;;14.83;78.38
59329;BME280;45100;46.926;7.452;2023-04-22T15:01:10;94778.58;;;14.84;78.80
59329;BME280;45100;46.926;7.452;2023-04-22T15:03:41;94773.05;;;14.87;78.35
59329;BME280;45100;46.926;7.452;2023-04-22T15:06:11;94768.70;;;14.89;77.48
59329;BME280;45100;46.926;7.452;2023-04-22T15:08:42;94769.09;;;14.89;76.87
59329;BME280;45100;46.926;7.452;2023-04-22T15:11:12;94766.86;;;14.86;77.06
59329;BME280;45100;46.926;7.452;2023-04-22T15:13:43;94766.92;;;14.85;77.30
59329;BME280;45100;46.926;7.452;2023-04-22T15:16:14;94762.64;;;14.85;76.97
59329;BME280;45100;46.926;7.452;2023-04-22T15:18:44;94760.20;;;14.85;76.89
59329;BME280;45100;46.926;7.452;2023-04-22T15:21:14;94757.22;;;14.85;77.09
59329;BME280;45100;46.926;7.452;2023-04-22T15:23:45;94750.44;;;14.86;76.99
59329;BME280;45100;46.926;7.452;2023-04-22T15:26:16;94750.02;;;14.87;75.85
59329;BME280;45100;46.926;7.452;2023-04-22T15:28:50;94746.00;;;14.88;76.10
59329;BME280;45100;46.926;7.452;2023-04-22T15:31:19;94746.53;;;14.86;75.70
59329;BME280;45100;46.926;7.452;2023-04-22T15:33:48;94742.05;;;14.88;76.07
59329;BME280;45100;46.926;7.452;2023-04-22T15:36:21;94736.84;;;14.93;75.90
59329;BME280;45100;46.926;7.452;2023-04-22T15:38:54;94733.38;;;14.98;74.36
59329;BME280;45100;46.926;7.452;2023-04-22T15:41:19;94735.92;;;15.01;74.21
59329;BME280;45100;46.926;7.452;2023-04-22T15:43:51;94743.27;;;15.05;74.75
59329;BME280;45100;46.926;7.452;2023-04-22T15:46:20;94737.14;;;15.09;74.69
59329;BME280;45100;46.926;7.452;2023-04-22T15:48:50;94739.84;;;15.14;74.71
59329;BME280;45100;46.926;7.452;2023-04-22T15:51:21;94737.91;;;15.15;73.78
59329;BME280;45100;46.926;7.452;2023-04-22T15:53:52;94740.06;;;15.13;73.75
59329;BME280;45100;46.926;7.452;2023-04-22T15:56:23;94743.16;;;15.12;73.95
59329;BME280;45100;46.926;7.452;2023-04-22T15:58:53;94751.06;;;15.07;74.38
59329;BME280;45100;46.926;7.452;2023-04-22T16:01:23;94757.36;;;15.03;74.51
59329;BME280;45100;46.926;7.452;2023-04-22T16:03:54;94758.54;;;14.99;74.76
59329;BME280;45100;46.926;7.452;2023-04-22T16:06:25;94757.94;;;14.98;75.00
59329;BME280;45100;46.926;7.452;2023-04-22T16:08:56;94749.00;;;14.97;74.58
59329;BME280;45100;46.926;7.452;2023-04-22T16:11:26;94745.97;;;14.97;74.65
59329;BME280;45100;46.926;7.452;2023-04-22T16:13:57;94755.06;;;14.95;75.03
59329;BME280;45100;46.926;7.452;2023-04-22T16:16:28;94760.06;;;14.94;75.40
59329;BME280;45100;46.926;7.452;2023-04-22T16:18:58;94763.84;;;14.92;74.68
59329;BME280;45100;46.926;7.452;2023-04-22T16:21:29;94758.91;;;14.90;74.96
59329;BME280;45100;46.926;7.452;2023-04-22T16:23:58;94763.66;;;14.87;75.06
59329;BME280;45100;46.926;7.452;2023-04-22T16:26:29;94760.53;;;14.82;75.13
59329;BME280;45100;46.926;7.452;2023-04-22T16:29:00;94756.50;;;14.79;75.21
59329;BME280;45100;46.926;7.452;2023-04-22T16:31:31;94761.38;;;14.76;75.69
59329;BME280;45100;46.926;7.452;2023-04-22T16:34:01;94758.86;;;14.74;75.97
59329;BME280;45100;46.926;7.452;2023-04-22T16:36:32;94754.31;;;14.72;74.80
59329;BME280;45100;46.926;7.452;2023-04-22T16:39:03;94745.12;;;14.68;74.20
59329;BME280;45100;46.926;7.452;2023-04-22T16:41:33;94739.44;;;14.65;75.20
59329;BME280;45100;46.926;7.452;2023-04-22T16:44:04;94734.17;;;14.63;76.51
59329;BME280;45100;46.926;7.452;2023-04-22T16:46:35;94729.84;;;14.60;77.15
59329;BME280;45100;46.926;7.452;2023-04-22T16:49:06;94720.73;;;14.58;77.24
59329;BME280;45100;46.926;7.452;2023-04-22T16:51:36;94717.48;;;14.55;77.68
59329;BME280;45100;46.926;7.452;2023-04-22T16:56:40;94712.80;;;14.51;77.71
59329;BME280;45100;46.926;7.452;2023-04-22T17:01:43;94701.09;;;14.51;76.43
59329;BME280;45100;46.926;7.452;2023-04-22T17:04:14;94695.89;;;14.51;75.98
59329;BME280;45100;46.926;7.452;2023-04-22T17:06:45;94696.08;;;14.51;75.11
59329;BME280;45100;46.926;7.452;2023-04-22T17:09:15;94695.58;;;14.50;74.86
59329;BME280;45100;46.926;7.452;2023-04-22T17:11:45;94687.14;;;14.49;74.28
59329;BME280;45100;46.926;7.452;2023-04-22T17:14:15;94689.98;;;14.47;74.20
59329;BME280;45100;46.926;7.452;2023-04-22T17:16:46;94700.12;;;14.43;74.55
59329;BME280;45100;46.926;7.452;2023-04-22T17:19:17;94703.52;;;14.39;74.86
59329;BME280;45100;46.926;7.452;2023-04-22T17:21:48;94704.75;;;14.35;74.94
59329;BME280;45100;46.926;7.452;2023-04-22T17:24:18;94702.52;;;14.32;74.87
59329;BME280;45100;46.926;7.452;2023-04-22T17:26:49;94705.02;;;14.30;74.43
59329;BME280;45100;46.926;7.452;2023-04-22T17:29:21;94703.48;;;14.29;73.92
59329;BME280;45100;46.926;7.452;2023-04-22T17:31:51;94700.27;;;14.28;73.45
59329;BME280;45100;46.926;7.452;2023-04-22T17:34:21;94707.97;;;14.26;73.41
59329;BME280;45100;46.926;7.452;2023-04-22T17:36:52;94704.19;;;14.25;73.46
59329;BME280;45100;46.926;7.452;2023-04-22T17:39:23;94701.17;;;14.22;73.23
59329;BME280;45100;46.926;7.452;2023-04-22T17:41:53;94700.91;;;14.20;72.84
59329;BME280;45100;46.926;7.452;2023-04-22T17:44:24;94702.62;;;14.17;72.39
59329;BME280;45100;46.926;7.452;2023-04-22T17:46:55;94705.23;;;14.15;72.13
59329;BME280;45100;46.926;7.452;2023-04-22T17:49:26;94703.58;;;14.11;72.40
59329;BME280;45100;46.926;7.452;2023-04-22T17:51:56;94708.05;;;14.07;72.73
59329;BME280;45100;46.926;7.452;2023-04-22T17:54:27;94713.14;;;14.03;72.96
59329;BME280;45100;46.926;7.452;2023-04-22T17:56:58;94717.00;;;13.99;72.92
59329;BME280;45100;46.926;7.452;2023-04-22T17:59:29;94718.00;;;13.95;72.99
59329;BME280;45100;46.926;7.452;2023-04-22T18:01:59;94722.21;;;13.90;73.42
59329;BME280;45100;46.926;7.452;2023-04-22T18:04:31;94720.94;;;13.85;73.85
59329;BME280;45100;46.926;7.452;2023-04-22T18:07:01;94724.11;;;13.80;74.18
59329;BME280;45100;46.926;7.452;2023-04-22T18:09:32;94726.67;;;13.73;74.32
59329;BME280;45100;46.926;7.452;2023-04-22T18:12:02;94735.45;;;13.68;74.39
59329;BME280;45100;46.926;7.452;2023-04-22T18:14:33;94732.17;;;13.65;74.38
59329;BME280;45100;46.926;7.452;2023-04-22T18:17:04;94733.89;;;13.60;74.60
59329;BME280;45100;46.926;7.452;2023-04-22T18:19:34;94738.96;;;13.58;74.56
59329;BME280;45100;46.926;7.452;2023-04-22T18:22:05;94742.78;;;13.55;74.79
59329;BME280;45100;46.926;7.452;2023-04-22T18:27:09;94743.05;;;13.50;74.71
59329;BME280;45100;46.926;7.452;2023-04-22T18:29:39;94742.78;;;13.46;74.99
59329;BME280;45100;46.926;7.452;2023-04-22T18:32:10;94749.61;;;13.42;75.31
59329;BME280;45100;46.926;7.452;2023-04-22T18:34:41;94748.82;;;13.38;75.74
59329;BME280;45100;46.926;7.452;2023-04-22T18:37:12;94752.25;;;13.35;76.15
59329;BME280;45100;46.926;7.452;2023-04-22T18:39:42;94750.77;;;13.32;76.35
59329;BME280;45100;46.926;7.452;2023-04-22T18:42:13;94755.02;;;13.28;76.70
59329;BME280;45100;46.926;7.452;2023-04-22T18:44:44;94756.80;;;13.27;77.28
59329;BME280;45100;46.926;7.452;2023-04-22T18:47:15;94756.70;;;13.25;77.77
59329;BME280;45100;46.926;7.452;2023-04-22T18:49:45;94757.59;;;13.23;78.05
59329;BME280;45100;46.926;7.452;2023-04-22T18:52:17;94757.68;;;13.21;78.34
59329;BME280;45100;46.926;7.452;2023-04-22T18:54:46;94754.00;;;13.19;78.59
59329;BME280;45100;46.926;7.452;2023-04-22T18:57:17;94755.64;;;13.17;78.83
59329;BME280;45100;46.926;7.452;2023-04-22T18:59:48;94760.94;;;13.15;79.07
59329;BME280;45100;46.926;7.452;2023-04-22T19:02:19;94760.75;;;13.14;79.44
59329;BME280;45100;46.926;7.452;2023-04-22T19:04:50;94764.59;;;13.12;79.67
59329;BME280;45100;46.926;7.452;2023-04-22T19:07:20;94761.69;;;13.10;79.99
59329;BME280;45100;46.926;7.452;2023-04-22T19:09:50;94756.65;;;13.07;80.32
59329;BME280;45100;46.926;7.452;2023-04-22T19:12:21;94760.78;;;13.04;80.60
59329;BME280;45100;46.926;7.452;2023-04-22T19:14:52;94753.91;;;13.03;81.08
59329;BME280;45100;46.926;7.452;2023-04-22T19:17:22;94759.24;;;13.01;81.41
59329;BME280;45100;46.926;7.452;2023-04-22T19:19:52;94756.67;;;12.99;81.67
59329;BME280;45100;46.926;7.452;2023-04-22T19:22:23;94753.80;;;12.97;81.98
59329;BME280;45100;46.926;7.452;2023-04-22T19:24:54;94748.91;;;12.94;82.27
59329;BME280;45100;46.926;7.452;2023-04-22T19:27:25;94747.59;;;12.93;82.55
59329;BME280;45100;46.926;7.452;2023-04-22T19:29:56;94739.92;;;12.92;82.78
59329;BME280;45100;46.926;7.452;2023-04-22T19:32:27;94736.09;;;12.89;83.00
59329;BME280;45100;46.926;7.452;2023-04-22T19:34:58;94734.59;;;12.88;82.69
59329;BME280;45100;46.926;7.452;2023-04-22T19:37:28;94741.43;;;12.87;82.63
59329;BME280;45100;46.926;7.452;2023-04-22T19:39:59;94742.61;;;12.85;82.79
59329;BME280;45100;46.926;7.452;2023-04-22T19:42:29;94747.27;;;12.83;82.84
59329;BME280;45100;46.926;7.452;2023-04-22T19:47:33;94753.09;;;12.77;83.11
59329;BME280;45100;46.926;7.452;2023-04-22T19:50:05;94762.83;;;12.70;83.82
59329;BME280;45100;46.926;7.452;2023-04-22T19:52:35;94764.02;;;12.64;84.71
59329;BME280;45100;46.926;7.452;2023-04-22T19:55:08;94776.30;;;12.61;85.55
59329;BME280;45100;46.926;7.452;2023-04-22T19:57:37;94779.75;;;12.57;86.04
59329;BME280;45100;46.926;7.452;2023-04-22T20:00:08;94785.94;;;12.54;86.26
59329;BME280;45100;46.926;7.452;2023-04-22T20:02:37;94785.62;;;12.51;86.31
59329;BME280;45100;46.926;7.452;2023-04-22T20:05:08;94799.98;;;12.51;86.47
59329;BME280;45100;46.926;7.452;2023-04-22T20:07:39;94803.76;;;12.50;86.50
59329;BME280;45100;46.926;7.452;2023-04-22T20:10:09;94802.24;;;12.50;86.47
59329;BME280;45100;46.926;7.452;2023-04-22T20:12:38;94807.83;;;12.51;86.28
59329;BME280;45100;46.926;7.452;2023-04-22T20:15:09;94808.16;;;12.53;86.17
59329;BME280;45100;46.926;7.452;2023-04-22T20:17:39;94805.95;;;12.53;86.19
59329;BME280;45100;46.926;7.452;2023-04-22T20:22:50;94807.44;;;12.55;85.83
59329;BME280;45100;46.926;7.452;2023-04-22T20:25:20;94814.80;;;12.56;85.62
59329;BME280;45100;46.926;7.452;2023-04-22T20:27:51;94817.76;;;12.56;85.62
59329;BME280;45100;46.926;7.452;2023-04-22T20:30:21;94815.11;;;12.56;85.65
59329;BME280;45100;46.926;7.452;2023-04-22T20:32:52;94812.62;;;12.55;85.67
59329;BME280;45100;46.926;7.452;2023-04-22T20:35:24;94811.74;;;12.54;85.53
59329;BME280;45100;46.926;7.452;2023-04-22T20:40:28;94811.27;;;12.49;86.38
59329;BME280;45100;46.926;7.452;2023-04-22T20:42:57;94816.52;;;12.46;86.78
59329;BME280;45100;46.926;7.452;2023-04-22T20:48:01;94813.94;;;12.43;87.06
59329;BME280;45100;46.926;7.452;2023-04-22T20:50:33;94815.61;;;12.42;87.00
59329;BME280;45100;46.926;7.452;2023-04-22T20:53:02;94815.77;;;12.42;86.79
59329;BME280;45100;46.926;7.452;2023-04-22T20:55:32;94815.02;;;12.43;86.19
59329;BME280;45100;46.926;7.452;2023-04-22T20:58:03;94812.53;;;12.42;86.41
59329;BME280;45100;46.926;7.452;2023-04-22T21:00:33;94806.78;;;12.41;86.05
59329;BME280;45100;46.926;7.452;2023-04-22T21:05:41;94802.48;;;12.38;85.01
59329;BME280;45100;46.926;7.452;2023-04-22T21:08:21;94801.45;;;12.38;85.07
59329;BME280;45100;46.926;7.452;2023-04-22T21:10:36;94797.82;;;12.36;85.44
59329;BME280;45100;46.926;7.452;2023-04-22T21:13:06;94800.60;;;12.34;86.03
59329;BME280;45100;46.926;7.452;2023-04-22T21:15:39;94803.50;;;12.29;86.52
59329;BME280;45100;46.926;7.452;2023-04-22T21:18:07;94805.77;;;12.26;86.92
59329;BME280;45100;46.926;7.452;2023-04-22T21:20:43;94811.03;;;12.22;87.22
59329;BME280;45100;46.926;7.452;2023-04-22T21:23:08;94815.38;;;12.21;87.49
59329;BME280;45100;46.926;7.452;2023-04-22T21:25:38;94808.72;;;12.19;87.87
59329;BME280;45100;46.926;7.452;2023-04-22T21:28:09;94805.33;;;12.17;88.03
59329;BME280;45100;46.926;7.452;2023-04-22T21:30:41;94810.08;;;12.15;88.20
59329;BME280;45100;46.926;7.452;2023-04-22T21:33:10;94811.56;;;12.14;88.35
59329;BME280;45100;46.926;7.452;2023-04-22T21:35:41;94816.48;;;12.13;88.48
59329;BME280;45100;46.926;7.452;2023-04-22T21:38:12;94817.76;;;12.12;88.68
59329;BME280;45100;46.926;7.452;2023-04-22T21:40:41;94818.98;;;12.11;88.91
59329;BME280;45100;46.926;7.452;2023-04-22T21:43:12;94820.75;;;12.10;89.10
59329;BME280;45100;46.926;7.452;2023-04-22T21:45:43;94824.18;;;12.09;89.32
59329;BME280;45100;46.926;7.452;2023-04-22T21:48:13;94824.87;;;12.07;89.66
59329;BME280;45100;46.926;7.452;2023-04-22T21:50:44;94819.98;;;12.06;89.93
59329;BME280;45100;46.926;7.452;2023-04-22T21:53:14;94822.81;;;12.03;90.20
59329;BME280;45100;46.926;7.452;2023-04-22T21:55:45;94822.61;;;12.00;90.43
59329;BME280;45100;46.926;7.452;2023-04-22T21:58:16;94826.83;;;11.97;90.72
59329;BME280;45100;46.926;7.452;2023-04-22T22:00:46;94831.00;;;11.94;90.92
59329;BME280;45100;46.926;7.452;2023-04-22T22:03:17;94833.11;;;11.92;91.29
59329;BME280;45100;46.926;7.452;2023-04-22T22:05:47;94833.09;;;11.90;91.48
59329;BME280;45100;46.926;7.452;2023-04-22T22:08:18;94831.42;;;11.87;91.65
59329;BME280;45100;46.926;7.452;2023-04-22T22:10:49;94830.96;;;11.85;91.85
59329;BME280;45100;46.926;7.452;2023-04-22T22:13:19;94830.52;;;11.83;92.04
59329;BME280;45100;46.926;7.452;2023-04-22T22:15:50;94832.44;;;11.81;92.29
59329;BME280;45100;46.926;7.452;2023-04-22T22:18:21;94829.74;;;11.78;92.46
59329;BME280;45100;46.926;7.452;2023-04-22T22:20:51;94831.23;;;11.76;92.67
59329;BME280;45100;46.926;7.452;2023-04-22T22:23:22;94833.59;;;11.75;92.78
59329;BME280;45100;46.926;7.452;2023-04-22T22:25:53;94833.42;;;11.74;92.88
59329;BME280;45100;46.926;7.452;2023-04-22T22:28:23;94838.48;;;11.73;93.00
59329;BME280;45100;46.926;7.452;2023-04-22T22:31:01;94835.97;;;11.72;93.10
59329;BME280;45100;46.926;7.452;2023-04-22T22:33:24;94841.38;;;11.73;93.23
59329;BME280;45100;46.926;7.452;2023-04-22T22:35:54;94842.55;;;11.71;93.32
59329;BME280;45100;46.926;7.452;2023-04-22T22:38:25;94841.61;;;11.70;93.47
59329;BME280;45100;46.926;7.452;2023-04-22T22:40:56;94834.11;;;11.70;93.51
59329;BME280;45100;46.926;7.452;2023-04-22T22:43:26;94834.12;;;11.68;93.52
59329;BME280;45100;46.926;7.452;2023-04-22T22:45:57;94837.47;;;11.67;93.60
59329;BME280;45100;46.926;7.452;2023-04-22T22:48:27;94838.30;;;11.66;93.66
59329;BME280;45100;46.926;7.452;2023-04-22T22:50:58;94843.84;;;11.65;93.71
59329;BME280;45100;46.926;7.452;2023-04-22T22:53:29;94844.92;;;11.65;93.66
59329;BME280;45100;46.926;7.452;2023-04-22T22:55:59;94845.58;;;11.63;93.79
59329;BME280;45100;46.926;7.452;2023-04-22T22:58:31;94848.59;;;11.61;93.97
59329;BME280;45100;46.926;7.452;2023-04-22T23:01:03;94850.59;;;11.59;94.02
59329;BME280;45100;46.926;7.452;2023-04-22T23:03:31;94848.69;;;11.57;94.09
59329;BME280;45100;46.926;7.452;2023-04-22T23:06:02;94848.42;;;11.58;94.18
59329;BME280;45100;46.926;7.452;2023-04-22T23:08:32;94855.24;;;11.56;94.20
59329;BME280;45100;46.926;7.452;2023-04-22T23:11:03;94854.86;;;11.56;94.24
59329;BME280;45100;46.926;7.452;2023-04-22T23:13:34;94849.37;;;11.56;94.20
59329;BME280;45100;46.926;7.452;2023-04-22T23:16:04;94849.09;;;11.55;94.12
59329;BME280;45100;46.926;7.452;2023-04-22T23:18:36;94842.55;;;11.55;94.10
59329;BME280;45100;46.926;7.452;2023-04-22T23:21:06;94841.79;;;11.54;94.12
59329;BME280;45100;46.926;7.452;2023-04-22T23:23:36;94838.91;;;11.53;94.00
59329;BME280;45100;46.926;7.452;2023-04-22T23:26:07;94837.96;;;11.51;93.79
59329;BME280;45100;46.926;7.452;2023-04-22T23:28:37;94837.23;;;11.49;93.75
59329;BME280;45100;46.926;7.452;2023-04-22T23:31:07;94841.92;;;11.47;93.83
59329;BME280;45100;46.926;7.452;2023-04-22T23:33:40;94846.55;;;11.45;93.95
59329;BME280;45100;46.926;7.452;2023-04-22T23:36:08;94846.37;;;11.45;93.98
59329;BME280;45100;46.926;7.452;2023-04-22T23:38:37;94846.02;;;11.44;93.68
59329;BME280;45100;46.926;7.452;2023-04-22T23:41:08;94848.02;;;11.43;93.31
59329;BME280;45100;46.926;7.452;2023-04-22T23:43:39;94852.91;;;11.42;92.77
59329;BME280;45100;46.926;7.452;2023-04-22T23:46:09;94853.58;;;11.41;92.47
59329;BME280;45100;46.926;7.452;2023-04-22T23:48:41;94854.50;;;11.40;92.25
59329;BME280;45100;46.926;7.452;2023-04-22T23:51:16;94857.30;;;11.40;92.09
59329;BME280;45100;46.926;7.452;2023-04-22T23:53:43;94855.02;;;11.39;91.66
59329;BME280;45100;46.926;7.452;2023-04-22T23:56:12;94852.42;;;11.39;91.26
